sensor_id;sensor_type;location;lat;lon;timestamp;temperature;humidity
11736;DHT22;5924;51.398;7.088;2023-06-26T00:01:27;22.30;99.90
11736;DHT22;5924;51.398;7.088;2023-06-26T00:04:00;22.20;99.90
11736;DHT22;5924;51.398;7.088;2023-06-26T00:06:26;22.20;99.90
11736;DHT22;5924;51.398;7.088;2023-06-26T00:08:53;22.00;99.90
11736;DHT22;5924;51.398;7.088;2023-06-26T00:11:20;21.90;99.90
11736;DHT22;5924;51.398;7.088;2023-06-26T00:13:46;21.80;99.90
11736;DHT22;5924;51.398;7.088;2023-06-26T00:16:11;21.70;99.90
11736;DHT22;5924;51.398;7.088;2023-06-26T00:18:37;21.70;99.90
11736;DHT22;5924;51.398;7.088;2023-06-26T00:21:03;21.60;99.90
11736;DHT22;5924;51.398;7.088;2023-06-26T00:23:28;21.60;99.90
11736;DHT22;5924;51.398;7.088;2023-06-26T00:25:56;21.50;99.90
11736;DHT22;5924;51.398;7.088;2023-06-26T00:28:22;21.50;99.90
11736;DHT22;5924;51.398;7.088;2023-06-26T00:30:47;21.50;99.90
11736;DHT22;5924;51.398;7.088;2023-06-26T00:33:13;21.50;99.90
11736;DHT22;5924;51.398;7.088;2023-06-26T00:35:38;21.50;99.90
11736;DHT22;5924;51.398;7.088;2023-06-26T00:38:04;21.50;99.90
11736;DHT22;5924;51.398;7.088;2023-06-26T00:40:30;21.50;99.90
11736;DHT22;5924;51.398;7.088;2023-06-26T00:42:55;21.50;99.90
11736;DHT22;5924;51.398;7.088;2023-06-26T00:45:21;21.40;99.90
11736;DHT22;5924;51.398;7.088;2023-06-26T00:47:47;21.30;99.90
11736;DHT22;5924;51.398;7.088;2023-06-26T00:50:13;21.30;99.90
11736;DHT22;5924;51.398;7.088;2023-06-26T00:52:41;21.20;99.90
11736;DHT22;5924;51.398;7.088;2023-06-26T00:55:07;21.20;99.90
11736;DHT22;5924;51.398;7.088;2023-06-26T00:57:33;21.10;99.90
11736;DHT22;5924;51.398;7.088;2023-06-26T01:00:00;21.10;99.90
11736;DHT22;5924;51.398;7.088;2023-06-26T01:02:26;21.00;99.90
11736;DHT22;5924;51.398;7.088;2023-06-26T01:04:54;21.00;99.90
11736;DHT22;5924;51.398;7.088;2023-06-26T01:07:21;21.00;99.90
11736;DHT22;5924;51.398;7.088;2023-06-26T01:09:47;21.00;99.90
11736;DHT22;5924;51.398;7.088;2023-06-26T01:12:14;21.00;99.90
11736;DHT22;5924;51.398;7.088;2023-06-26T01:14:39;21.00;99.90
11736;DHT22;5924;51.398;7.088;2023-06-26T01:17:06;21.00;99.90
11736;DHT22;5924;51.398;7.088;2023-06-26T01:19:33;21.00;99.90
11736;DHT22;5924;51.398;7.088;2023-06-26T01:22:03;21.00;99.90
11736;DHT22;5924;51.398;7.088;2023-06-26T01:24:45;20.90;99.90
11736;DHT22;5924;51.398;7.088;2023-06-26T01:27:14;20.90;99.90
11736;DHT22;5924;51.398;7.088;2023-06-26T01:29:41;20.80;99.90
11736;DHT22;5924;51.398;7.088;2023-06-26T01:32:08;20.80;99.90
11736;DHT22;5924;51.398;7.088;2023-06-26T01:34:34;20.80;99.90
11736;DHT22;5924;51.398;7.088;2023-06-26T01:37:00;20.80;99.90
11736;DHT22;5924;51.398;7.088;2023-06-26T01:39:25;20.80;99.90
11736;DHT22;5924;51.398;7.088;2023-06-26T01:41:51;20.70;99.90
11736;DHT22;5924;51.398;7.088;2023-06-26T01:44:27;20.70;99.90
11736;DHT22;5924;51.398;7.088;2023-06-26T01:47:05;20.70;99.90
11736;DHT22;5924;51.398;7.088;2023-06-26T01:49:49;20.60;99.90
11736;DHT22;5924;51.398;7.088;2023-06-26T01:52:41;20.60;99.90
11736;DHT22;5924;51.398;7.088;2023-06-26T01:57:35;20.50;99.90
11736;DHT22;5924;51.398;7.088;2023-06-26T02:00:02;20.40;99.90
11736;DHT22;5924;51.398;7.088;2023-06-26T02:02:31;20.40;99.90
11736;DHT22;5924;51.398;7.088;2023-06-26T02:04:56;20.30;99.90
11736;DHT22;5924;51.398;7.088;2023-06-26T02:07:22;20.30;99.90
11736;DHT22;5924;51.398;7.088;2023-06-26T02:09:48;20.30;99.90
11736;DHT22;5924;51.398;7.088;2023-06-26T02:12:13;20.20;99.90
11736;DHT22;5924;51.398;7.088;2023-06-26T02:14:39;20.20;99.90
11736;DHT22;5924;51.398;7.088;2023-06-26T02:17:05;20.20;99.90
11736;DHT22;5924;51.398;7.088;2023-06-26T02:19:30;20.20;99.90
11736;DHT22;5924;51.398;7.088;2023-06-26T02:21:56;20.20;99.90
11736;DHT22;5924;51.398;7.088;2023-06-26T02:24:21;20.10;99.90
11736;DHT22;5924;51.398;7.088;2023-06-26T02:26:47;20.10;99.90
11736;DHT22;5924;51.398;7.088;2023-06-26T02:29:14;20.10;99.90
11736;DHT22;5924;51.398;7.088;2023-06-26T02:31:40;20.10;99.90
11736;DHT22;5924;51.398;7.088;2023-06-26T02:34:06;20.00;99.90
11736;DHT22;5924;51.398;7.088;2023-06-26T02:36:32;20.10;99.90
11736;DHT22;5924;51.398;7.088;2023-06-26T02:38:58;20.10;99.90
11736;DHT22;5924;51.398;7.088;2023-06-26T02:41:23;20.00;99.90
11736;DHT22;5924;51.398;7.088;2023-06-26T02:43:49;20.00;99.90
11736;DHT22;5924;51.398;7.088;2023-06-26T02:46:15;21.20;99.90
11736;DHT22;5924;51.398;7.088;2023-06-26T02:48:40;19.90;99.90
11736;DHT22;5924;51.398;7.088;2023-06-26T02:51:07;19.90;99.90
11736;DHT22;5924;51.398;7.088;2023-06-26T02:53:33;20.00;99.90
11736;DHT22;5924;51.398;7.088;2023-06-26T02:55:59;20.00;99.90
11736;DHT22;5924;51.398;7.088;2023-06-26T02:58:24;20.00;99.90
11736;DHT22;5924;51.398;7.088;2023-06-26T03:00:50;20.00;99.90
11736;DHT22;5924;51.398;7.088;2023-06-26T03:03:16;20.00;99.90
11736;DHT22;5924;51.398;7.088;2023-06-26T03:05:42;20.00;99.90
11736;DHT22;5924;51.398;7.088;2023-06-26T03:08:07;20.00;99.90
11736;DHT22;5924;51.398;7.088;2023-06-26T03:10:33;20.00;99.90
11736;DHT22;5924;51.398;7.088;2023-06-26T03:12:59;20.00;99.90
11736;DHT22;5924;51.398;7.088;2023-06-26T03:15:24;20.00;99.90
11736;DHT22;5924;51.398;7.088;2023-06-26T03:17:50;20.00;99.90
11736;DHT22;5924;51.398;7.088;2023-06-26T03:20:16;20.00;99.90
11736;DHT22;5924;51.398;7.088;2023-06-26T03:22:42;19.90;99.90
11736;DHT22;5924;51.398;7.088;2023-06-26T03:25:07;19.90;99.90
11736;DHT22;5924;51.398;7.088;2023-06-26T03:27:33;19.90;99.90
11736;DHT22;5924;51.398;7.088;2023-06-26T03:29:59;19.90;99.90
11736;DHT22;5924;51.398;7.088;2023-06-26T03:32:25;19.80;99.90
11736;DHT22;5924;51.398;7.088;2023-06-26T03:34:51;19.80;99.90
11736;DHT22;5924;51.398;7.088;2023-06-26T03:37:18;19.90;99.90
11736;DHT22;5924;51.398;7.088;2023-06-26T03:39:44;20.00;99.90
11736;DHT22;5924;51.398;7.088;2023-06-26T03:42:09;20.10;99.90
11736;DHT22;5924;51.398;7.088;2023-06-26T03:44:35;20.20;99.90
11736;DHT22;5924;51.398;7.088;2023-06-26T03:47:00;20.30;99.90
11736;DHT22;5924;51.398;7.088;2023-06-26T03:49:26;20.30;99.90
11736;DHT22;5924;51.398;7.088;2023-06-26T03:51:52;20.40;99.90
11736;DHT22;5924;51.398;7.088;2023-06-26T03:54:17;20.40;99.90
11736;DHT22;5924;51.398;7.088;2023-06-26T03:56:43;20.40;99.90
11736;DHT22;5924;51.398;7.088;2023-06-26T03:59:10;20.40;99.90
11736;DHT22;5924;51.398;7.088;2023-06-26T04:01:36;20.40;99.90
11736;DHT22;5924;51.398;7.088;2023-06-26T04:04:02;20.40;99.90
11736;DHT22;5924;51.398;7.088;2023-06-26T04:06:28;20.30;99.90
11736;DHT22;5924;51.398;7.088;2023-06-26T04:08:54;20.30;99.90
11736;DHT22;5924;51.398;7.088;2023-06-26T04:11:19;20.30;99.90
11736;DHT22;5924;51.398;7.088;2023-06-26T04:13:45;20.30;99.90
11736;DHT22;5924;51.398;7.088;2023-06-26T04:16:10;20.20;99.90
11736;DHT22;5924;51.398;7.088;2023-06-26T04:18:37;20.20;99.90
11736;DHT22;5924;51.398;7.088;2023-06-26T04:21:12;20.20;99.90
11736;DHT22;5924;51.398;7.088;2023-06-26T04:23:39;20.20;99.90
11736;DHT22;5924;51.398;7.088;2023-06-26T04:26:05;20.20;99.90
11736;DHT22;5924;51.398;7.088;2023-06-26T04:28:35;20.20;99.90
11736;DHT22;5924;51.398;7.088;2023-06-26T04:31:02;20.20;99.90
11736;DHT22;5924;51.398;7.088;2023-06-26T04:33:31;20.20;99.90
11736;DHT22;5924;51.398;7.088;2023-06-26T04:35:56;20.20;99.90
11736;DHT22;5924;51.398;7.088;2023-06-26T04:38:23;20.20;99.90
11736;DHT22;5924;51.398;7.088;2023-06-26T04:40:49;20.20;99.90
11736;DHT22;5924;51.398;7.088;2023-06-26T04:43:15;20.30;99.90
11736;DHT22;5924;51.398;7.088;2023-06-26T04:45:41;20.30;99.90
11736;DHT22;5924;51.398;7.088;2023-06-26T04:48:06;20.30;99.90
11736;DHT22;5924;51.398;7.088;2023-06-26T04:50:32;20.30;99.90
11736;DHT22;5924;51.398;7.088;2023-06-26T04:52:59;20.30;99.90
11736;DHT22;5924;51.398;7.088;2023-06-26T04:55:25;20.30;99.90
11736;DHT22;5924;51.398;7.088;2023-06-26T04:57:51;20.30;99.90
11736;DHT22;5924;51.398;7.088;2023-06-26T05:00:17;20.30;99.90
11736;DHT22;5924;51.398;7.088;2023-06-26T05:02:42;20.30;99.90
11736;DHT22;5924;51.398;7.088;2023-06-26T05:05:08;20.40;99.90
11736;DHT22;5924;51.398;7.088;2023-06-26T05:07:34;20.40;99.90
11736;DHT22;5924;51.398;7.088;2023-06-26T05:09:59;20.40;99.90
11736;DHT22;5924;51.398;7.088;2023-06-26T05:12:25;20.50;99.90
11736;DHT22;5924;51.398;7.088;2023-06-26T05:14:51;20.50;99.90
11736;DHT22;5924;51.398;7.088;2023-06-26T05:17:16;20.50;99.90
11736;DHT22;5924;51.398;7.088;2023-06-26T05:19:42;20.60;99.90
11736;DHT22;5924;51.398;7.088;2023-06-26T05:22:08;20.60;99.90
11736;DHT22;5924;51.398;7.088;2023-06-26T05:24:35;20.70;99.90
11736;DHT22;5924;51.398;7.088;2023-06-26T05:27:02;20.80;99.90
11736;DHT22;5924;51.398;7.088;2023-06-26T05:29:30;20.80;99.90
11736;DHT22;5924;51.398;7.088;2023-06-26T05:31:56;20.80;99.90
11736;DHT22;5924;51.398;7.088;2023-06-26T05:34:26;20.90;99.90
11736;DHT22;5924;51.398;7.088;2023-06-26T05:36:57;21.00;99.90
11736;DHT22;5924;51.398;7.088;2023-06-26T05:39:24;21.20;99.90
11736;DHT22;5924;51.398;7.088;2023-06-26T05:41:50;21.40;99.90
11736;DHT22;5924;51.398;7.088;2023-06-26T05:44:16;21.40;99.90
11736;DHT22;5924;51.398;7.088;2023-06-26T05:46:42;21.40;99.90
11736;DHT22;5924;51.398;7.088;2023-06-26T05:49:08;21.40;99.90
11736;DHT22;5924;51.398;7.088;2023-06-26T05:51:34;21.30;99.90
11736;DHT22;5924;51.398;7.088;2023-06-26T05:54:00;21.20;99.90
11736;DHT22;5924;51.398;7.088;2023-06-26T05:56:26;21.00;99.90
11736;DHT22;5924;51.398;7.088;2023-06-26T05:58:52;20.90;99.90
11736;DHT22;5924;51.398;7.088;2023-06-26T06:01:18;20.90;99.90
11736;DHT22;5924;51.398;7.088;2023-06-26T06:03:45;20.80;99.90
11736;DHT22;5924;51.398;7.088;2023-06-26T06:06:11;20.80;99.90
11736;DHT22;5924;51.398;7.088;2023-06-26T06:08:36;20.90;99.90
11736;DHT22;5924;51.398;7.088;2023-06-26T06:11:02;21.00;99.90
11736;DHT22;5924;51.398;7.088;2023-06-26T06:13:28;21.10;99.90
11736;DHT22;5924;51.398;7.088;2023-06-26T06:15:54;21.30;99.90
11736;DHT22;5924;51.398;7.088;2023-06-26T06:18:20;21.40;99.90
11736;DHT22;5924;51.398;7.088;2023-06-26T06:20:46;21.40;99.90
11736;DHT22;5924;51.398;7.088;2023-06-26T06:23:12;21.40;99.90
11736;DHT22;5924;51.398;7.088;2023-06-26T06:25:38;21.40;99.90
11736;DHT22;5924;51.398;7.088;2023-06-26T06:28:05;21.70;99.90
11736;DHT22;5924;51.398;7.088;2023-06-26T06:30:30;21.40;99.90
11736;DHT22;5924;51.398;7.088;2023-06-26T06:32:57;21.40;99.90
11736;DHT22;5924;51.398;7.088;2023-06-26T06:35:22;21.50;99.90
11736;DHT22;5924;51.398;7.088;2023-06-26T06:37:49;21.70;99.90
11736;DHT22;5924;51.398;7.088;2023-06-26T06:40:14;21.80;99.90
11736;DHT22;5924;51.398;7.088;2023-06-26T06:42:40;21.80;99.90
11736;DHT22;5924;51.398;7.088;2023-06-26T06:45:06;21.70;99.90
11736;DHT22;5924;51.398;7.088;2023-06-26T06:47:33;21.40;99.90
11736;DHT22;5924;51.398;7.088;2023-06-26T06:50:00;21.20;99.90
11736;DHT22;5924;51.398;7.088;2023-06-26T06:52:34;20.80;99.90
11736;DHT22;5924;51.398;7.088;2023-06-26T06:55:00;20.60;99.90
11736;DHT22;5924;51.398;7.088;2023-06-26T06:57:30;20.60;99.90
11736;DHT22;5924;51.398;7.088;2023-06-26T06:59:56;20.60;99.90
11736;DHT22;5924;51.398;7.088;2023-06-26T07:02:21;20.70;99.90
11736;DHT22;5924;51.398;7.088;2023-06-26T07:04:47;20.80;99.90
11736;DHT22;5924;51.398;7.088;2023-06-26T07:07:13;20.90;99.90
11736;DHT22;5924;51.398;7.088;2023-06-26T07:09:41;21.00;99.90
11736;DHT22;5924;51.398;7.088;2023-06-26T07:12:07;21.20;99.90
11736;DHT22;5924;51.398;7.088;2023-06-26T07:14:32;21.40;99.90
11736;DHT22;5924;51.398;7.088;2023-06-26T07:16:58;21.60;99.90
11736;DHT22;5924;51.398;7.088;2023-06-26T07:19:24;21.80;99.90
11736;DHT22;5924;51.398;7.088;2023-06-26T07:21:49;21.90;99.90
11736;DHT22;5924;51.398;7.088;2023-06-26T07:24:15;21.80;99.90
11736;DHT22;5924;51.398;7.088;2023-06-26T07:26:40;21.80;99.90
11736;DHT22;5924;51.398;7.088;2023-06-26T07:29:06;21.80;99.90
11736;DHT22;5924;51.398;7.088;2023-06-26T07:31:32;21.70;99.90
11736;DHT22;5924;51.398;7.088;2023-06-26T07:33:57;21.80;99.90
11736;DHT22;5924;51.398;7.088;2023-06-26T07:36:23;22.00;99.90
11736;DHT22;5924;51.398;7.088;2023-06-26T07:38:49;22.10;99.90
11736;DHT22;5924;51.398;7.088;2023-06-26T07:41:14;22.20;99.90
11736;DHT22;5924;51.398;7.088;2023-06-26T07:43:40;22.20;99.90
11736;DHT22;5924;51.398;7.088;2023-06-26T07:46:06;22.20;99.90
11736;DHT22;5924;51.398;7.088;2023-06-26T07:48:31;22.30;99.90
11736;DHT22;5924;51.398;7.088;2023-06-26T07:50:57;22.40;99.90
11736;DHT22;5924;51.398;7.088;2023-06-26T07:53:22;22.50;99.90
11736;DHT22;5924;51.398;7.088;2023-06-26T07:55:48;22.60;99.90
11736;DHT22;5924;51.398;7.088;2023-06-26T07:58:14;22.70;99.90
11736;DHT22;5924;51.398;7.088;2023-06-26T08:00:40;22.80;99.90
11736;DHT22;5924;51.398;7.088;2023-06-26T08:03:06;22.90;99.90
11736;DHT22;5924;51.398;7.088;2023-06-26T08:05:31;23.00;99.90
11736;DHT22;5924;51.398;7.088;2023-06-26T08:07:57;23.10;99.90
11736;DHT22;5924;51.398;7.088;2023-06-26T08:10:23;23.10;99.90
11736;DHT22;5924;51.398;7.088;2023-06-26T08:12:48;23.30;99.90
11736;DHT22;5924;51.398;7.088;2023-06-26T08:15:15;23.30;99.90
11736;DHT22;5924;51.398;7.088;2023-06-26T08:17:41;23.40;99.90
11736;DHT22;5924;51.398;7.088;2023-06-26T08:20:07;23.40;99.90
11736;DHT22;5924;51.398;7.088;2023-06-26T08:22:33;23.40;99.90
11736;DHT22;5924;51.398;7.088;2023-06-26T08:24:59;23.50;99.90
11736;DHT22;5924;51.398;7.088;2023-06-26T08:27:25;23.70;99.90
11736;DHT22;5924;51.398;7.088;2023-06-26T08:29:51;23.80;99.90
11736;DHT22;5924;51.398;7.088;2023-06-26T08:32:16;23.70;99.90
11736;DHT22;5924;51.398;7.088;2023-06-26T08:34:42;23.40;99.90
11736;DHT22;5924;51.398;7.088;2023-06-26T08:37:08;23.20;99.90
11736;DHT22;5924;51.398;7.088;2023-06-26T08:39:36;22.90;99.90
11736;DHT22;5924;51.398;7.088;2023-06-26T08:42:02;22.70;99.90
11736;DHT22;5924;51.398;7.088;2023-06-26T08:44:28;22.90;99.90
11736;DHT22;5924;51.398;7.088;2023-06-26T08:46:54;23.10;99.90
11736;DHT22;5924;51.398;7.088;2023-06-26T08:49:37;23.30;99.90
11736;DHT22;5924;51.398;7.088;2023-06-26T08:52:10;23.30;99.90
11736;DHT22;5924;51.398;7.088;2023-06-26T08:54:45;23.00;99.90
11736;DHT22;5924;51.398;7.088;2023-06-26T08:57:11;22.60;99.90
11736;DHT22;5924;51.398;7.088;2023-06-26T08:59:38;22.30;99.90
11736;DHT22;5924;51.398;7.088;2023-06-26T09:02:04;22.20;99.90
11736;DHT22;5924;51.398;7.088;2023-06-26T09:04:30;22.50;99.90
11736;DHT22;5924;51.398;7.088;2023-06-26T09:06:56;22.90;99.90
11736;DHT22;5924;51.398;7.088;2023-06-26T09:09:22;23.50;99.90
11736;DHT22;5924;51.398;7.088;2023-06-26T09:11:47;23.30;99.90
11736;DHT22;5924;51.398;7.088;2023-06-26T09:14:13;23.30;99.90
11736;DHT22;5924;51.398;7.088;2023-06-26T09:16:40;23.40;99.90
11736;DHT22;5924;51.398;7.088;2023-06-26T09:19:11;23.40;99.90
11736;DHT22;5924;51.398;7.088;2023-06-26T09:21:42;23.60;99.90
11736;DHT22;5924;51.398;7.088;2023-06-26T09:24:09;23.80;99.90
11736;DHT22;5924;51.398;7.088;2023-06-26T09:26:40;23.90;99.90
11736;DHT22;5924;51.398;7.088;2023-06-26T09:29:06;23.80;99.90
11736;DHT22;5924;51.398;7.088;2023-06-26T09:31:33;23.50;99.90
11736;DHT22;5924;51.398;7.088;2023-06-26T09:34:00;23.10;99.90
11736;DHT22;5924;51.398;7.088;2023-06-26T09:36:29;22.80;99.90
11736;DHT22;5924;51.398;7.088;2023-06-26T09:38:59;23.00;99.90
11736;DHT22;5924;51.398;7.088;2023-06-26T09:41:25;23.50;99.90
11736;DHT22;5924;51.398;7.088;2023-06-26T09:43:50;24.00;99.90
11736;DHT22;5924;51.398;7.088;2023-06-26T09:46:26;24.00;99.90
11736;DHT22;5924;51.398;7.088;2023-06-26T09:51:33;24.10;99.90
11736;DHT22;5924;51.398;7.088;2023-06-26T09:54:00;24.20;99.90
11736;DHT22;5924;51.398;7.088;2023-06-26T09:56:26;24.40;99.90
11736;DHT22;5924;51.398;7.088;2023-06-26T09:58:56;24.60;99.90
11736;DHT22;5924;51.398;7.088;2023-06-26T10:01:24;24.50;99.90
11736;DHT22;5924;51.398;7.088;2023-06-26T10:03:49;24.20;99.90
11736;DHT22;5924;51.398;7.088;2023-06-26T10:06:19;23.90;99.90
11736;DHT22;5924;51.398;7.088;2023-06-26T10:08:45;23.70;99.90
11736;DHT22;5924;51.398;7.088;2023-06-26T10:11:16;23.90;99.90
11736;DHT22;5924;51.398;7.088;2023-06-26T10:13:43;24.20;99.90
11736;DHT22;5924;51.398;7.088;2023-06-26T10:16:12;24.70;99.90
11736;DHT22;5924;51.398;7.088;2023-06-26T10:18:39;25.00;99.90
11736;DHT22;5924;51.398;7.088;2023-06-26T10:21:06;25.30;99.90
11736;DHT22;5924;51.398;7.088;2023-06-26T10:23:35;25.50;99.90
11736;DHT22;5924;51.398;7.088;2023-06-26T10:26:02;25.90;99.90
11736;DHT22;5924;51.398;7.088;2023-06-26T10:28:33;26.00;99.90
11736;DHT22;5924;51.398;7.088;2023-06-26T10:31:00;25.80;99.90
11736;DHT22;5924;51.398;7.088;2023-06-26T10:33:26;25.70;99.90
11736;DHT22;5924;51.398;7.088;2023-06-26T10:35:52;25.50;99.90
11736;DHT22;5924;51.398;7.088;2023-06-26T10:38:18;25.20;99.90
11736;DHT22;5924;51.398;7.088;2023-06-26T10:40:48;24.70;99.90
11736;DHT22;5924;51.398;7.088;2023-06-26T10:43:17;24.10;99.90
11736;DHT22;5924;51.398;7.088;2023-06-26T10:45:48;24.10;99.90
11736;DHT22;5924;51.398;7.088;2023-06-26T10:48:20;24.30;99.90
11736;DHT22;5924;51.398;7.088;2023-06-26T10:50:50;24.70;99.90
11736;DHT22;5924;51.398;7.088;2023-06-26T10:58:40;25.00;99.90
11736;DHT22;5924;51.398;7.088;2023-06-26T11:01:19;25.30;99.90
11736;DHT22;5924;51.398;7.088;2023-06-26T11:06:24;25.70;99.90
11736;DHT22;5924;51.398;7.088;2023-06-26T11:08:52;25.80;99.90
11736;DHT22;5924;51.398;7.088;2023-06-26T11:14:21;26.10;99.90
11736;DHT22;5924;51.398;7.088;2023-06-26T11:16:47;26.20;99.90
11736;DHT22;5924;51.398;7.088;2023-06-26T11:19:14;26.40;99.90
11736;DHT22;5924;51.398;7.088;2023-06-26T11:21:40;26.20;99.90
11736;DHT22;5924;51.398;7.088;2023-06-26T11:24:10;25.40;99.90
11736;DHT22;5924;51.398;7.088;2023-06-26T11:26:44;24.50;99.90
11736;DHT22;5924;51.398;7.088;2023-06-26T11:29:10;23.90;99.90
11736;DHT22;5924;51.398;7.088;2023-06-26T11:31:41;23.90;99.90
11736;DHT22;5924;51.398;7.088;2023-06-26T11:34:12;24.50;99.90
11736;DHT22;5924;51.398;7.088;2023-06-26T11:36:38;25.00;99.90
11736;DHT22;5924;51.398;7.088;2023-06-26T11:39:06;25.30;99.90
11736;DHT22;5924;51.398;7.088;2023-06-26T11:41:36;25.40;99.90
11736;DHT22;5924;51.398;7.088;2023-06-26T11:44:03;25.70;99.90
11736;DHT22;5924;51.398;7.088;2023-06-26T11:46:29;25.90;99.90
11736;DHT22;5924;51.398;7.088;2023-06-26T11:48:55;26.00;99.90
11736;DHT22;5924;51.398;7.088;2023-06-26T11:51:21;25.90;99.90
11736;DHT22;5924;51.398;7.088;2023-06-26T11:53:47;25.90;99.90
11736;DHT22;5924;51.398;7.088;2023-06-26T11:56:15;26.10;99.90
11736;DHT22;5924;51.398;7.088;2023-06-26T12:01:30;25.60;99.90
11736;DHT22;5924;51.398;7.088;2023-06-26T12:03:59;25.30;99.90
11736;DHT22;5924;51.398;7.088;2023-06-26T12:06:27;24.80;99.90
11736;DHT22;5924;51.398;7.088;2023-06-26T12:08:53;24.40;99.90
11736;DHT22;5924;51.398;7.088;2023-06-26T12:11:20;24.00;99.90
11736;DHT22;5924;51.398;7.088;2023-06-26T12:13:47;23.80;99.90
11736;DHT22;5924;51.398;7.088;2023-06-26T12:16:14;23.80;99.90
11736;DHT22;5924;51.398;7.088;2023-06-26T12:18:40;24.10;99.90
11736;DHT22;5924;51.398;7.088;2023-06-26T12:21:06;24.30;99.90
11736;DHT22;5924;51.398;7.088;2023-06-26T12:23:38;24.40;99.90
11736;DHT22;5924;51.398;7.088;2023-06-26T12:26:20;24.50;99.90
11736;DHT22;5924;51.398;7.088;2023-06-26T12:28:47;24.40;99.90
11736;DHT22;5924;51.398;7.088;2023-06-26T12:31:14;24.60;99.90
11736;DHT22;5924;51.398;7.088;2023-06-26T12:33:40;25.00;99.90
11736;DHT22;5924;51.398;7.088;2023-06-26T12:36:21;25.80;99.90
11736;DHT22;5924;51.398;7.088;2023-06-26T12:38:49;26.40;99.90
11736;DHT22;5924;51.398;7.088;2023-06-26T12:41:15;26.30;99.90
11736;DHT22;5924;51.398;7.088;2023-06-26T12:43:41;26.20;99.90
11736;DHT22;5924;51.398;7.088;2023-06-26T12:46:07;26.30;99.90
11736;DHT22;5924;51.398;7.088;2023-06-26T12:48:39;25.80;98.80
11736;DHT22;5924;51.398;7.088;2023-06-26T12:51:16;25.10;98.40
11736;DHT22;5924;51.398;7.088;2023-06-26T12:53:42;24.70;97.70
11736;DHT22;5924;51.398;7.088;2023-06-26T12:56:10;24.60;98.10
11736;DHT22;5924;51.398;7.088;2023-06-26T12:58:37;24.70;97.10
11736;DHT22;5924;51.398;7.088;2023-06-26T13:01:04;24.90;95.70
11736;DHT22;5924;51.398;7.088;2023-06-26T13:03:31;25.30;98.80
11736;DHT22;5924;51.398;7.088;2023-06-26T13:05:56;26.00;97.80
11736;DHT22;5924;51.398;7.088;2023-06-26T13:08:22;26.20;96.40
11736;DHT22;5924;51.398;7.088;2023-06-26T13:10:48;26.60;97.00
11736;DHT22;5924;51.398;7.088;2023-06-26T13:13:13;26.80;97.30
11736;DHT22;5924;51.398;7.088;2023-06-26T13:15:39;27.30;93.70
11736;DHT22;5924;51.398;7.088;2023-06-26T13:18:05;27.80;92.10
11736;DHT22;5924;51.398;7.088;2023-06-26T13:20:30;27.30;90.70
11736;DHT22;5924;51.398;7.088;2023-06-26T13:22:56;26.40;89.70
11736;DHT22;5924;51.398;7.088;2023-06-26T13:25:22;25.70;91.60
11736;DHT22;5924;51.398;7.088;2023-06-26T13:27:48;26.10;92.50
11736;DHT22;5924;51.398;7.088;2023-06-26T13:30:15;26.40;92.60
11736;DHT22;5924;51.398;7.088;2023-06-26T13:32:40;26.00;90.60
11736;DHT22;5924;51.398;7.088;2023-06-26T13:35:06;25.40;91.10
11736;DHT22;5924;51.398;7.088;2023-06-26T13:37:32;24.70;91.60
11736;DHT22;5924;51.398;7.088;2023-06-26T13:40:02;24.70;91.50
11736;DHT22;5924;51.398;7.088;2023-06-26T13:42:28;25.40;91.30
11736;DHT22;5924;51.398;7.088;2023-06-26T13:44:54;26.60;90.60
11736;DHT22;5924;51.398;7.088;2023-06-26T13:47:20;27.40;88.20
11736;DHT22;5924;51.398;7.088;2023-06-26T13:49:46;27.00;83.00
11736;DHT22;5924;51.398;7.088;2023-06-26T13:52:12;26.00;83.60
11736;DHT22;5924;51.398;7.088;2023-06-26T13:54:37;25.70;87.00
11736;DHT22;5924;51.398;7.088;2023-06-26T13:57:06;26.10;84.70
11736;DHT22;5924;51.398;7.088;2023-06-26T13:59:32;26.80;88.10
11736;DHT22;5924;51.398;7.088;2023-06-26T14:01:58;27.00;88.20
11736;DHT22;5924;51.398;7.088;2023-06-26T14:04:25;26.70;88.10
11736;DHT22;5924;51.398;7.088;2023-06-26T14:06:52;26.70;83.70
11736;DHT22;5924;51.398;7.088;2023-06-26T14:09:18;26.80;83.20
11736;DHT22;5924;51.398;7.088;2023-06-26T14:11:44;27.40;84.90
11736;DHT22;5924;51.398;7.088;2023-06-26T14:14:09;25.70;86.40
11736;DHT22;5924;51.398;7.088;2023-06-26T14:16:35;25.10;88.80
11736;DHT22;5924;51.398;7.088;2023-06-26T14:19:01;25.60;89.40
11736;DHT22;5924;51.398;7.088;2023-06-26T14:21:27;26.60;84.00
11736;DHT22;5924;51.398;7.088;2023-06-26T14:23:54;27.00;85.60
11736;DHT22;5924;51.398;7.088;2023-06-26T14:26:20;26.90;81.10
11736;DHT22;5924;51.398;7.088;2023-06-26T14:28:46;26.00;81.70
11736;DHT22;5924;51.398;7.088;2023-06-26T14:31:12;25.60;84.70
11736;DHT22;5924;51.398;7.088;2023-06-26T14:33:38;25.20;84.00
11736;DHT22;5924;51.398;7.088;2023-06-26T14:36:03;25.30;84.90
11736;DHT22;5924;51.398;7.088;2023-06-26T14:38:29;25.90;80.80
11736;DHT22;5924;51.398;7.088;2023-06-26T14:40:55;25.00;78.10
11736;DHT22;5924;51.398;7.088;2023-06-26T14:43:20;26.60;79.10
11736;DHT22;5924;51.398;7.088;2023-06-26T14:45:46;27.10;80.10
11736;DHT22;5924;51.398;7.088;2023-06-26T14:48:12;27.90;74.50
11736;DHT22;5924;51.398;7.088;2023-06-26T14:50:38;28.40;75.50
11736;DHT22;5924;51.398;7.088;2023-06-26T14:53:04;28.70;74.50
11736;DHT22;5924;51.398;7.088;2023-06-26T14:55:29;28.70;72.30
11736;DHT22;5924;51.398;7.088;2023-06-26T14:57:55;28.60;73.60
11736;DHT22;5924;51.398;7.088;2023-06-26T15:00:21;28.00;72.50
11736;DHT22;5924;51.398;7.088;2023-06-26T15:02:47;27.40;69.40
11736;DHT22;5924;51.398;7.088;2023-06-26T15:05:13;26.80;70.40
11736;DHT22;5924;51.398;7.088;2023-06-26T15:07:39;26.20;71.30
11736;DHT22;5924;51.398;7.088;2023-06-26T15:10:05;25.70;70.60
11736;DHT22;5924;51.398;7.088;2023-06-26T15:12:32;25.10;72.40
11736;DHT22;5924;51.398;7.088;2023-06-26T15:14:57;24.70;74.90
11736;DHT22;5924;51.398;7.088;2023-06-26T15:17:23;25.10;75.30
11736;DHT22;5924;51.398;7.088;2023-06-26T15:19:49;25.30;76.00
11736;DHT22;5924;51.398;7.088;2023-06-26T15:22:18;25.70;73.80
11736;DHT22;5924;51.398;7.088;2023-06-26T15:24:43;26.20;75.10
11736;DHT22;5924;51.398;7.088;2023-06-26T15:27:09;26.70;72.60
11736;DHT22;5924;51.398;7.088;2023-06-26T15:29:35;26.90;72.90
11736;DHT22;5924;51.398;7.088;2023-06-26T15:32:01;26.80;76.20
11736;DHT22;5924;51.398;7.088;2023-06-26T15:34:26;27.10;70.90
11736;DHT22;5924;51.398;7.088;2023-06-26T15:36:52;27.60;70.80
11736;DHT22;5924;51.398;7.088;2023-06-26T15:39:18;27.60;72.20
11736;DHT22;5924;51.398;7.088;2023-06-26T15:41:44;27.50;73.80
11736;DHT22;5924;51.398;7.088;2023-06-26T15:44:10;27.00;76.00
11736;DHT22;5924;51.398;7.088;2023-06-26T15:46:36;26.30;77.50
11736;DHT22;5924;51.398;7.088;2023-06-26T15:49:02;25.80;76.50
11736;DHT22;5924;51.398;7.088;2023-06-26T15:51:27;25.50;80.50
11736;DHT22;5924;51.398;7.088;2023-06-26T15:53:53;25.40;79.10
11736;DHT22;5924;51.398;7.088;2023-06-26T15:56:19;25.00;77.20
11736;DHT22;5924;51.398;7.088;2023-06-26T15:58:45;24.50;79.90
11736;DHT22;5924;51.398;7.088;2023-06-26T16:01:12;24.00;79.90